Toyo Eagle — H3LY — position and weather

sailwx.info

Track history (hours):
 
Tides and Currents Weather Stations Pressure Air Temp Water Temp Dewpoint Dewpoint Depression Visibility Wind Speed Wind Dir Waves Ship Positions

Toyo Eagle

Last reported at 2017-Mar-21 18:24 UTC. Time now 2017-Mar-23 20:21 UTC.
Position N 33°42' E 132°05'.

Length 108 m; draft 6.8 m.

Type: Cargo ship. MMSI: 355327000.

Date/timePositionNaut miles runAvg speedWind from/ knotsBaromVisibWave heightAir tempDewpointWater temp
2017-Mar-21 18:24N 33°42' E 132°05'911.3
2017-Mar-21 17:33N 33°44' E 132°16'1211.6
2017-Mar-21 16:33N 33°49' E 132°29'1211.5
2017-Mar-21 15:32N 33°56' E 132°40'  
2017-Mar-19 01:14N 34°33' E 134°46'812.1
2017-Mar-19 00:33N 34°36' E 134°55'1010.1
2017-Mar-18 23:33N 34°35' E 135°07'1110.9
2017-Mar-18 22:33N 34°33' E 135°20'3 0.1
2017-Mar-18 01:23N 34°31' E 135°23'0 0.0
2017-Mar-18 00:29N 34°31' E 135°23'0 0.0
2017-Mar-17 23:29N 34°31' E 135°23'0 0.0
2017-Mar-17 22:29N 34°31' E 135°23'0 0.0
2017-Mar-17 21:29N 34°31' E 135°23'0 0.0
2017-Mar-17 20:29N 34°31' E 135°23'0 0.0
2017-Mar-17 19:29N 34°31' E 135°23'0 0.0
2017-Mar-17 18:29N 34°31' E 135°23'0 0.0
2017-Mar-17 17:29N 34°31' E 135°23'0 0.0
2017-Mar-17 16:29N 34°31' E 135°23'0 0.0
2017-Mar-17 15:29N 34°31' E 135°23'0 0.0
2017-Mar-17 14:29N 34°31' E 135°23'0 0.0
2017-Mar-17 13:29N 34°31' E 135°23'0 0.0
2017-Mar-17 12:23N 34°31' E 135°23'0 0.0
2017-Mar-17 11:23N 34°31' E 135°23'0 0.0
2017-Mar-17 10:17N 34°31' E 135°23'0 0.0
2017-Mar-17 09:29N 34°31' E 135°23'0 0.0
2017-Mar-17 07:23N 34°31' E 135°23'0 0.0
2017-Mar-17 05:23N 34°31' E 135°23'0 0.0
2017-Mar-17 01:05N 34°31' E 135°23'0 0.0
2017-Mar-17 00:29N 34°31' E 135°23'0 0.0
2017-Mar-16 23:29N 34°31' E 135°23'0 0.0
2017-Mar-16 22:23N 34°31' E 135°23'0 0.0
2017-Mar-16 21:23N 34°31' E 135°23'0 0.0
2017-Mar-16 20:29N 34°31' E 135°23'0 0.0
2017-Mar-16 19:29N 34°31' E 135°23'0 0.0
2017-Mar-16 18:29N 34°31' E 135°23'0 0.0
2017-Mar-16 17:29N 34°31' E 135°23'0 0.0
2017-Mar-16 16:29N 34°31' E 135°23'0 0.0
2017-Mar-16 15:29N 34°31' E 135°23'0 0.0
2017-Mar-16 14:29N 34°31' E 135°23'0 0.0
2017-Mar-16 13:29N 34°31' E 135°23'0 0.0
2017-Mar-16 12:29N 34°31' E 135°23'0 0.0
2017-Mar-16 11:29N 34°31' E 135°23'0 0.0
2017-Mar-16 10:29N 34°31' E 135°23'0 0.0
2017-Mar-16 09:29N 34°31' E 135°23'0 0.0
2017-Mar-16 08:23N 34°31' E 135°23'0 0.5
2017-Mar-16 07:33N 34°31' E 135°23'6 5.9
2017-Mar-16 06:33N 34°30' E 135°16'1010.0
2017-Mar-16 05:32N 34°24' E 135°06'10 9.2
2017-Mar-16 04:29N 34°16' E 134°59'9 9.7
2017-Mar-16 03:33N 34°07' E 134°60'1010.1
2017-Mar-16 02:32N 33°57' E 134°60'  
Track history (hours):
 
Tides and Currents Weather Stations Pressure Air Temp Water Temp Dewpoint Dewpoint Depression Visibility Wind Speed Wind Dir Waves Ship Positions

Toyo Eagle

Last reported at 2017-Mar-21 18:24 UTC. Time now 2017-Mar-23 20:21 UTC.
Position N 33°42' E 132°05'.

Length 108 m; draft 6.8 m.

Type: Cargo ship. MMSI: 355327000.

Date/timePositionNaut miles runAvg speedWind from/ knotsBaromVisibWave heightAir tempDewpointWater temp
2017-Mar-21 18:24N 33°42' E 132°05'911.3
2017-Mar-21 17:33N 33°44' E 132°16'1211.6
2017-Mar-21 16:33N 33°49' E 132°29'1211.5
2017-Mar-21 15:32N 33°56' E 132°40'  
2017-Mar-19 01:14N 34°33' E 134°46'812.1
2017-Mar-19 00:33N 34°36' E 134°55'1010.1
2017-Mar-18 23:33N 34°35' E 135°07'1110.9
2017-Mar-18 22:33N 34°33' E 135°20'3 0.1
2017-Mar-18 01:23N 34°31' E 135°23'0 0.0
2017-Mar-18 00:29N 34°31' E 135°23'0 0.0
2017-Mar-17 23:29N 34°31' E 135°23'0 0.0
2017-Mar-17 22:29N 34°31' E 135°23'0 0.0
2017-Mar-17 21:29N 34°31' E 135°23'0 0.0
2017-Mar-17 20:29N 34°31' E 135°23'0 0.0
2017-Mar-17 19:29N 34°31' E 135°23'0 0.0
2017-Mar-17 18:29N 34°31' E 135°23'0 0.0
2017-Mar-17 17:29N 34°31' E 135°23'0 0.0
2017-Mar-17 16:29N 34°31' E 135°23'0 0.0
2017-Mar-17 15:29N 34°31' E 135°23'0 0.0
2017-Mar-17 14:29N 34°31' E 135°23'0 0.0
2017-Mar-17 13:29N 34°31' E 135°23'0 0.0
2017-Mar-17 12:23N 34°31' E 135°23'0 0.0
2017-Mar-17 11:23N 34°31' E 135°23'0 0.0
2017-Mar-17 10:17N 34°31' E 135°23'0 0.0
2017-Mar-17 09:29N 34°31' E 135°23'0 0.0
2017-Mar-17 07:23N 34°31' E 135°23'0 0.0
2017-Mar-17 05:23N 34°31' E 135°23'0 0.0
2017-Mar-17 01:05N 34°31' E 135°23'0 0.0
2017-Mar-17 00:29N 34°31' E 135°23'0 0.0
2017-Mar-16 23:29N 34°31' E 135°23'0 0.0
2017-Mar-16 22:23N 34°31' E 135°23'0 0.0
2017-Mar-16 21:23N 34°31' E 135°23'0 0.0
2017-Mar-16 20:29N 34°31' E 135°23'0 0.0
2017-Mar-16 19:29N 34°31' E 135°23'0 0.0
2017-Mar-16 18:29N 34°31' E 135°23'0 0.0
2017-Mar-16 17:29N 34°31' E 135°23'0 0.0
2017-Mar-16 16:29N 34°31' E 135°23'0 0.0
2017-Mar-16 15:29N 34°31' E 135°23'0 0.0
2017-Mar-16 14:29N 34°31' E 135°23'0 0.0
2017-Mar-16 13:29N 34°31' E 135°23'0 0.0
2017-Mar-16 12:29N 34°31' E 135°23'0 0.0
2017-Mar-16 11:29N 34°31' E 135°23'0 0.0
2017-Mar-16 10:29N 34°31' E 135°23'0 0.0
2017-Mar-16 09:29N 34°31' E 135°23'0 0.0
2017-Mar-16 08:23N 34°31' E 135°23'0 0.5
2017-Mar-16 07:33N 34°31' E 135°23'6 5.9
2017-Mar-16 06:33N 34°30' E 135°16'1010.0
2017-Mar-16 05:32N 34°24' E 135°06'10 9.2
2017-Mar-16 04:29N 34°16' E 134°59'9 9.7
2017-Mar-16 03:33N 34°07' E 134°60'1010.1
2017-Mar-16 02:32N 33°57' E 134°60'  

Dump ship's entire track history